KLBE/LBE METAR and TAF weather

Enter ICAO airport designator
Station Type Date Time Source
KLBE METAR 2020/01/19 22:51 UTC NOAA

KLBE 192251Z 26012G30KT 7SM -SN FEW024 OVC030 M07/M11 A3011


Station Type Date Time Source
KLBE Decoded METAR 2020/01/19 22:51 UTC NOAA

Latrobe / Westmorland, PA, United States (KLBE) 40-17N 079-24W
Jan 19, 2020 - 05:51 PM EST / 2020.01.19 2251 UTC
Wind: from the W (260 degrees) at 14 MPH (12 KT) gusting to 35 MPH (30 KT):0
Visibility: 7 mile(s):0
Sky conditions: overcast
Weather: light snow
Temperature: 19 F (-7 C)
Windchill: 5 F (-15 C):1
Dew Point: 12 F (-11 C)
Relative Humidity: 73%
Pressure (altimeter): 30.11 in. Hg (1019 hPa)
ob: KLBE 192251Z 26012G30KT 7SM -SN FEW024 OVC030 M07/M11 A3011
cycle: 23

Station Type Date Time Source
KLBE TAF 2020/01/19 23:09 UTC NOAA

TAF
AMD KLBE 192307Z 1923/2018 27011G30KT 6SM -SN OVC025
FM200500 28010G18KT P6SM -SHSN OVC019
FM200800 28010KT P6SM OVC020
FM201600 28008KT P6SM SCT250

Example: see airport list